createdAt,value
2023-05-18T00:00:16.996Z,19.9
2023-05-18T00:10:17.147Z,19.9
2023-05-18T00:20:16.838Z,19.9
2023-05-18T00:30:17.119Z,19.8
2023-05-18T00:40:16.195Z,19.8
2023-05-18T00:50:15.650Z,19.8
2023-05-18T01:00:15.600Z,20.1
2023-05-18T01:10:15.138Z,19.8
2023-05-18T01:20:14.463Z,19.8
2023-05-18T01:30:14.136Z,19.8
2023-05-18T01:40:14.120Z,19.6
2023-05-18T01:50:13.930Z,19.7
2023-05-18T02:00:13.503Z,19.6
2023-05-18T02:10:14.005Z,19.7
2023-05-18T02:20:13.539Z,19.6
2023-05-18T02:30:15.741Z,19.7
2023-05-18T02:40:12.870Z,19.7
2023-05-18T02:50:13.031Z,19.7
2023-05-18T03:10:09.467Z,19.6
2023-05-18T03:20:09.399Z,19.6
2023-05-18T03:30:10.035Z,20.1
2023-05-18T03:40:11.052Z,19.9
2023-05-18T03:50:11.117Z,19.7
2023-05-18T04:00:11.760Z,19.9
2023-05-18T04:10:12.791Z,19.7
2023-05-18T04:20:14.024Z,20.1
2023-05-18T04:30:15.710Z,19.6
2023-05-18T04:40:17.203Z,19.6
2023-05-18T04:50:18.661Z,19.8
2023-05-18T05:00:20.603Z,19.9
2023-05-18T05:10:21.351Z,19.6
2023-05-18T05:20:22.063Z,20.1
2023-05-18T05:30:22.796Z,20.1
2023-05-18T05:40:23.118Z,19.7
2023-05-18T05:50:23.707Z,19.6
2023-05-18T06:00:23.001Z,19.6
2023-05-18T06:10:22.912Z,19.9
2023-05-18T06:20:22.808Z,19.8
2023-05-18T06:30:22.497Z,20
2023-05-18T06:40:22.852Z,19.8
2023-05-18T06:50:22.913Z,19.7
2023-05-18T07:00:24.257Z,20.2
2023-05-18T07:10:23.983Z,19.8
2023-05-18T07:20:26.124Z,19.8
2023-05-18T07:30:25.310Z,19.7
2023-05-18T07:40:25.179Z,19.8
2023-05-18T07:50:24.969Z,19.8
2023-05-18T08:00:25.737Z,19.8
2023-05-18T08:10:25.636Z,19.8
2023-05-18T08:20:25.851Z,20.2
2023-05-18T08:30:26.382Z,19.7
2023-05-18T08:40:26.027Z,19.7
2023-05-18T08:50:25.740Z,19.8
2023-05-18T09:10:09.085Z,20
2023-05-18T09:20:08.850Z,19.6
2023-05-18T09:30:09.712Z,20
2023-05-18T09:40:09.686Z,19.6
2023-05-18T09:50:09.112Z,19.5
2023-05-18T10:00:08.790Z,19.6
2023-05-18T10:10:10.294Z,19.5
2023-05-18T10:20:11.323Z,19.6
2023-05-18T10:30:13.539Z,19.9
2023-05-18T10:40:14.375Z,19.6
2023-05-18T10:50:15.341Z,19.6
2023-05-18T11:00:16.039Z,19.8
2023-05-18T11:10:15.827Z,19.8
2023-05-18T11:20:15.641Z,19.6
2023-05-18T11:30:17.350Z,19.6
2023-05-18T11:40:19.925Z,20.1
2023-05-18T11:50:22.716Z,19.8
2023-05-18T12:00:26.954Z,19.6
2023-05-18T12:10:28.942Z,19.5
2023-05-18T12:20:29.019Z,19.4
2023-05-18T12:30:28.716Z,19.4
2023-05-18T12:40:29.314Z,19.8
2023-05-18T12:50:29.229Z,19.9
2023-05-18T13:00:28.723Z,19.4
2023-05-18T13:10:27.833Z,19.4
2023-05-18T13:20:26.567Z,19.4
2023-05-18T13:30:28.045Z,19.6
2023-05-18T13:40:28.067Z,19.4
2023-05-18T13:50:27.759Z,19.4
2023-05-18T14:00:28.642Z,19.4
2023-05-18T14:10:28.652Z,19.5
2023-05-18T14:20:28.260Z,19.4
2023-05-18T14:30:28.139Z,19.6
2023-05-18T14:40:28.575Z,19.5
2023-05-18T14:50:27.746Z,19.6
2023-05-18T15:10:09.357Z,19.9
2023-05-18T15:20:09.298Z,19.6
2023-05-18T15:30:09.176Z,19.8
2023-05-18T15:40:08.828Z,19.6
2023-05-18T15:50:09.258Z,19.5
2023-05-18T16:00:08.781Z,19.6
2023-05-18T16:10:10.576Z,19.6
2023-05-18T16:20:11.502Z,19.6
2023-05-18T16:30:13.253Z,19.5
2023-05-18T16:40:14.211Z,19.5
2023-05-18T16:50:15.673Z,19.8
2023-05-18T17:00:16.581Z,19.8
2023-05-18T17:10:16.597Z,19.6
2023-05-18T17:20:16.299Z,19.4
2023-05-18T17:30:15.966Z,19.5
2023-05-18T17:40:15.825Z,19.4
2023-05-18T17:50:15.166Z,19.4
2023-05-18T18:00:14.892Z,19.4
2023-05-18T18:10:15.248Z,19.5
2023-05-18T18:20:14.854Z,19.4
2023-05-18T18:30:14.672Z,19.4
2023-05-18T18:40:13.722Z,19.4
2023-05-18T18:50:14.194Z,19.3
2023-05-18T19:00:13.709Z,19.4
2023-05-18T19:10:13.860Z,19.3
2023-05-18T19:20:13.258Z,19.3
2023-05-18T19:30:13.275Z,19.3
2023-05-18T19:40:12.546Z,19.3
2023-05-18T19:50:12.196Z,19.3
2023-05-18T20:00:11.420Z,19.3
2023-05-18T20:10:11.153Z,19.3
2023-05-18T20:20:11.419Z,19.3
2023-05-18T20:30:11.218Z,19.2
2023-05-18T20:40:11.818Z,19.3
2023-05-18T20:50:11.524Z,19.3
2023-05-18T21:10:06.876Z,19.3
2023-05-18T21:20:06.457Z,19.3
2023-05-18T21:30:06.666Z,19.2
2023-05-18T21:40:06.826Z,19.2
2023-05-18T21:50:07.513Z,19.2
2023-05-18T22:00:07.323Z,19.2
2023-05-18T22:10:08.955Z,19.2
2023-05-18T22:20:10.163Z,19.2
2023-05-18T22:30:11.775Z,19.7
2023-05-18T22:40:13.293Z,19.1
2023-05-18T22:50:15.285Z,19.1
2023-05-18T23:00:15.758Z,19.3
2023-05-18T23:10:15.729Z,19.3
2023-05-18T23:20:16.167Z,19.1
2023-05-18T23:30:16.014Z,19.1
2023-05-18T23:40:17.246Z,19.5
2023-05-18T23:50:17.931Z,19.1
